SCXR weather

Las Bandurrias Airport
Lago Ranco, Los Ríos Region, Chile

Public forecast

Using degrees Celsius for public forecast. Weather courtesy of forecast.io.

METAR (pilot weather report)

Closest report is Cañal Bajo Carlos - Hott Siebert Airport, 42.0 nm (77.8 km) WSW. Retrieved 2019/03/25 13:00 UTC (26 minutes ago):

SCJO 251300Z 21007KT 9999 OVC008 11/09 Q1020

TAF (pilot weather forecast)

Closest forecast is Cañal Bajo Carlos - Hott Siebert Airport, 42.0 nm (77.8 km) WSW. Retrieved 2019/03/25 12:33 UTC (53 minutes ago):

TAF SCJO 251015Z 2512/2524 20005KT 9999 OVC010 TN11/2512Z TX21/2520Z BECMG 2513/2515 SCT020 BECMG 2517/2519 18010KT CAVOK